Alexander, KS (67513)

11:39 PM CDT on July 23, 2014 (GMT -0500)
Sarrada Farms 2.0 N, 2.3 E (KKSROZEL2) Elev 2073 ft | 38.22 °N, 99.36 °W | Change Station

Current weather conditions updated 5 seconds ago

Clear
Clear
75.4 °F
Feels Like 77 °F
N
6.0
Wind Variable Wind from ESE
Gusts 8.0 mph

Tomorrow is forecast to be Much Warmer than today.

Today
High -- | Low -- °F
--% Chance of Precip.
Yesterday
High -- | Low -- °F
Precip. -- in
6:32 AM 8:56 PM
Waning Crescent, 7% visible
Pressure 30.17 in
Visibility 10.0 miles
Clouds Clear
Heat Index 77 °F
Dew Point 66 °F
Humidity 72%
Rainfall 0.00 in
Snow Depth Not available.
UV 0.0 out of 12
Pollen 5.70 out of 12
Air Quality Not available.
Flu Activity Not available.
METAR KHYS 240435Z AUTO 10007KT 10SM CLR 22/16 A3017 RMK AO1

More Conditions Fewer Conditions

Pressure 30.17 in
Visibility 10.0 miles
Clouds Clear
Heat Index 77 °F
Dew Point 66 °F
Humidity 72%
Rainfall 0.00 in
Snow Depth Not available.
UV 0.0 out of 12
Pollen 5.70 out of 12
Air Quality Not available.
Flu Activity Not available.
METAR KHYS 240435Z AUTO 10007KT 10SM CLR 22/16 A3017 RMK AO1

More Conditions Fewer Conditions

10-Day Weather Forecast

Almanac

Astronomy

Jul. 23, 2014 Rise Set
Actual Time 6:32 AM CDT 8:56 PM CDT
Civil Twilight 6:02 AM CDT 9:26 PM CDT
Nautical Twilight 5:25 AM CDT 10:03 PM CDT
Astronomical Twilight 4:43 AM CDT 10:44 PM CDT
Moon 3:52 AM CDT (7/23) 6:26 PM CDT (7/23)
Length of Visible Light 15h 24m
Length of Day
14h 23m
Tomorrow will be 1m 36s shorter.
Waning Crescent, 7% of the Moon is Illuminated
Jul 24
Waning Crescent
Jul 26
New
Aug 3
First Quarter
Aug 10
Full
Aug 17
Last Quarter

Yesterday's Extremes

State Highs State Lows

Community

WunderPhotos

Upload Photos

1,736,911 photos uploaded!

Nearby

Snow Depth

Station Depth Elevation
No new snow has been reported.

Earthquake Activity

City Distance Mag. Time & Date
Harper, Kansas 122 miles 3.0 7:24 PM CDT
2014-07-19
Helena, Oklahoma 147 miles 3.2 8:41 AM CDT
2014-07-18
Cherokee, Oklahoma 144 miles 2.5 10:35 AM CDT
2014-07-17
Caldwell, Kansas 134 miles 3.6 5:40 AM CDT
2014-07-17
Minimum magnitude displayed is 2.5.

Coastal Water Temperatures

Place Temperature
No Stations Reporting

Nearby Weather Stations

Station Location Temp. Heat Index Dew Point Humidity Wind Precip. Elev Updated Type
Sarrada Farms 2.0 N, 2.3 E, Rozel, KS 75.4 °F 77 °F 66 °F 72% ESE  at  6.0 mph 0.00 in / hr 2073 ft 11:39 PM CDT Rapid Fire

Show More Stations Show Fewer Stations